Time;durP1;ratioP1;P1;durP2;ratioP2;P2;SDS_P1;SDS_P2;PMS_P1;PMS_P2;Temp;Humidity;BMP_temperature;BMP_pressure;BME280_temperature;BME280_humidity;BME280_pressure;Samples;Min_cycle;Max_cycle;Signal;HPM_P1;HPM_P2
2021/05/17 00:00:15;;;;;;;11.17;3.20;;;10.80;99.90;;;;;;6269038;22;20176;-74
2021/05/17 00:02:42;;;;;;;10.73;2.97;;;10.80;99.90;;;;;;6265879;22;20180;-79
2021/05/17 00:05:10;;;;;;;10.60;3.50;;;10.80;99.90;;;;;;6268205;22;20177;-77
2021/05/17 00:07:36;;;;;;;7.97;2.80;;;10.70;99.90;;;;;;6266812;22;20177;-79
2021/05/17 00:10:04;;;;;;;12.47;3.10;;;10.70;99.90;;;;;;6268294;22;20172;-75
2021/05/17 00:12:31;;;;;;;8.80;3.57;;;10.70;99.90;;;;;;6267023;22;20172;-76
2021/05/17 00:14:57;;;;;;;7.77;2.60;;;10.60;99.90;;;;;;6267245;22;20196;-81
2021/05/17 00:17:25;;;;;;;6.63;2.83;;;10.60;99.90;;;;;;6266715;22;20208;-78
2021/05/17 00:19:52;;;;;;;8.33;2.80;;;10.60;99.90;;;;;;6266140;22;20628;-77
2021/05/17 00:22:18;;;;;;;7.10;2.80;;;10.60;99.90;;;;;;6266705;22;20188;-83
2021/05/17 00:24:45;;;;;;;3.80;2.00;;;10.60;99.90;;;;;;6267980;22;20188;-80
2021/05/17 00:27:12;;;;;;;7.17;2.80;;;10.60;99.90;;;;;;6268200;22;20199;-86
2021/05/17 00:29:39;;;;;;;8.30;2.43;;;10.60;99.90;;;;;;6267698;22;20165;-76
2021/05/17 00:32:06;;;;;;;5.40;2.40;;;10.60;99.90;;;;;;6266225;22;20207;-75
2021/05/17 00:34:34;;;;;;;4.47;2.50;;;10.70;99.90;;;;;;6266819;22;20181;-79
2021/05/17 00:37:00;;;;;;;10.73;3.80;;;10.70;99.90;;;;;;6265001;22;20183;-77
2021/05/17 00:39:27;;;;;;;12.00;4.30;;;10.70;99.90;;;;;;6268696;22;20525;-75
2021/05/17 00:41:53;;;;;;;11.60;5.03;;;10.60;99.90;;;;;;6266951;22;20196;-75
2021/05/17 00:44:20;;;;;;;8.63;4.57;;;10.60;99.90;;;;;;6265639;22;20173;-74
2021/05/17 00:46:47;;;;;;;10.97;4.80;;;10.60;99.90;;;;;;6267108;22;20230;-79
2021/05/17 00:49:14;;;;;;;8.50;4.43;;;10.60;99.90;;;;;;6266498;22;20904;-74
2021/05/17 00:51:41;;;;;;;12.23;5.03;;;10.60;99.90;;;;;;6265109;22;20226;-75
2021/05/17 00:54:08;;;;;;;8.07;4.50;;;10.60;99.90;;;;;;6268015;22;20176;-89
2021/05/17 00:56:36;;;;;;;11.30;5.00;;;10.60;99.90;;;;;;6268901;22;20240;-77
2021/05/17 00:59:02;;;;;;;12.27;4.90;;;10.60;99.90;;;;;;6267613;22;20177;-75
2021/05/17 01:01:29;;;;;;;17.23;6.03;;;10.60;99.90;;;;;;6267741;22;20897;-76
2021/05/17 01:03:56;;;;;;;13.53;4.93;;;10.60;99.90;;;;;;6267199;22;20259;-76
2021/05/17 01:06:23;;;;;;;7.87;4.50;;;10.60;99.90;;;;;;6267335;22;20264;-75
2021/05/17 01:08:58;;;;;;;11.40;5.53;;;10.60;99.90;;;;;;6267110;22;20180;-78
2021/05/17 01:11:26;;;;;;;13.77;7.13;;;10.60;99.90;;;;;;6270963;22;20160;-75
2021/05/17 01:13:53;;;;;;;13.57;5.93;;;10.60;99.90;;;;;;6269067;22;20700;-78
2021/05/17 01:16:20;;;;;;;14.53;6.00;;;10.60;99.90;;;;;;6268629;22;20211;-89
2021/05/17 01:18:50;;;;;;;11.03;5.83;;;10.70;99.90;;;;;;6269372;22;20176;-90
2021/05/17 01:21:19;;;;;;;14.17;6.87;;;10.70;99.90;;;;;;6269847;22;20604;-75
2021/05/17 01:23:55;;;;;;;15.17;6.30;;;10.60;99.90;;;;;;6268035;22;20283;-81
2021/05/17 01:26:23;;;;;;;14.40;7.03;;;10.70;99.90;;;;;;6268616;22;20247;-90
2021/05/17 01:28:52;;;;;;;12.57;6.60;;;10.70;99.90;;;;;;6267855;22;20172;-76
2021/05/17 01:31:18;;;;;;;14.80;7.70;;;10.70;99.90;;;;;;6267971;22;20164;-76
2021/05/17 01:33:46;;;;;;;17.50;9.07;;;10.60;99.90;;;;;;6267183;22;20175;-79
2021/05/17 01:36:15;;;;;;;11.43;6.93;;;10.60;99.90;;;;;;6269700;22;20188;-91
2021/05/17 01:38:45;;;;;;;18.20;7.80;;;10.60;99.90;;;;;;6268459;22;20180;-79
2021/05/17 01:41:14;;;;;;;16.43;8.43;;;10.50;99.90;;;;;;6268282;22;20188;-90
2021/05/17 01:43:43;;;;;;;19.43;9.77;;;10.50;99.90;;;;;;6267916;22;20175;-85
2021/05/17 01:46:13;;;;;;;14.50;9.47;;;10.50;99.90;;;;;;6264242;22;20173;-74
2021/05/17 01:48:41;;;;;;;17.23;9.30;;;10.50;99.90;;;;;;6266723;22;20169;-82
2021/05/17 01:51:10;;;;;;;22.10;10.00;;;10.60;99.90;;;;;;6265764;22;20169;-76
2021/05/17 01:53:37;;;;;;;17.77;10.37;;;10.60;99.90;;;;;;6265549;22;20184;-80
2021/05/17 01:56:05;;;;;;;14.37;9.60;;;10.60;99.90;;;;;;6269007;22;20169;-90
2021/05/17 01:58:35;;;;;;;20.50;11.33;;;10.60;99.90;;;;;;6268659;22;20635;-90
2021/05/17 02:01:03;;;;;;;18.73;10.30;;;10.60;99.90;;;;;;6266028;22;20905;-76
2021/05/17 02:03:29;;;;;;;19.77;10.20;;;10.60;99.90;;;;;;6270903;22;20557;-89
2021/05/17 02:05:57;;;;;;;16.77;10.07;;;10.60;99.90;;;;;;6267606;22;20191;-89
2021/05/17 02:08:23;;;;;;;16.27;9.03;;;10.60;99.90;;;;;;6267134;22;20185;-84
2021/05/17 02:10:50;;;;;;;15.97;10.37;;;10.50;99.90;;;;;;6268805;22;20557;-75
2021/05/17 02:13:18;;;;;;;18.00;10.87;;;10.60;99.90;;;;;;6268769;22;20199;-78
2021/05/17 02:15:47;;;;;;;17.10;10.50;;;10.60;99.90;;;;;;6265611;22;20184;-89
2021/05/17 02:18:17;;;;;;;16.47;10.80;;;10.60;99.90;;;;;;6268011;22;20157;-89
2021/05/17 02:20:44;;;;;;;17.20;11.43;;;10.60;99.90;;;;;;6267653;22;20180;-74
2021/05/17 02:23:11;;;;;;;16.77;12.10;;;10.60;99.90;;;;;;6265176;22;20177;-75
2021/05/17 02:25:42;;;;;;;17.90;11.33;;;10.60;99.90;;;;;;6267653;22;20176;-89
2021/05/17 02:28:09;;;;;;;19.40;12.00;;;10.60;99.90;;;;;;6267920;22;20165;-88
2021/05/17 02:30:36;;;;;;;17.23;11.37;;;10.60;99.90;;;;;;6267446;22;20564;-76
2021/05/17 02:33:04;;;;;;;16.10;11.27;;;10.60;99.90;;;;;;6267128;22;20991;-89
2021/05/17 02:35:30;;;;;;;16.00;11.83;;;10.70;99.90;;;;;;6269231;22;20219;-82
2021/05/17 02:37:57;;;;;;;20.53;12.43;;;10.70;99.90;;;;;;6267695;22;20176;-91
2021/05/17 02:40:24;;;;;;;19.53;13.07;;;10.70;99.90;;;;;;6266202;22;20176;-74
2021/05/17 02:42:51;;;;;;;17.13;11.70;;;10.70;99.90;;;;;;6265843;22;20199;-84
2021/05/17 02:45:19;;;;;;;18.63;13.40;;;10.70;99.90;;;;;;6269003;22;20230;-89
2021/05/17 02:47:46;;;;;;;17.27;13.23;;;10.70;99.90;;;;;;6267149;22;20172;-80
2021/05/17 02:50:16;;;;;;;16.37;13.07;;;10.70;99.90;;;;;;6265313;22;20723;-75
2021/05/17 02:52:44;;;;;;;14.87;12.53;;;10.60;99.90;;;;;;6266465;22;20183;-75
2021/05/17 02:55:12;;;;;;;12.97;11.60;;;10.60;99.90;;;;;;6267188;22;20187;-88
2021/05/17 02:57:41;;;;;;;13.70;10.70;;;10.50;99.90;;;;;;6267179;22;20180;-88
2021/05/17 03:00:17;;;;;;;15.50;11.37;;;10.50;99.90;;;;;;6268178;22;20172;-75
2021/05/17 03:03:11;;;;;;;14.20;11.23;;;10.50;99.90;;;;;;6267363;22;20184;-82
2021/05/17 03:05:41;;;;;;;14.20;11.10;;;10.50;99.90;;;;;;6215961;22;20172;-78
2021/05/17 03:08:09;;;;;;;14.97;11.57;;;10.50;99.90;;;;;;6268697;22;20168;-75
2021/05/17 03:10:37;;;;;;;13.33;11.80;;;10.50;99.90;;;;;;6267545;22;20173;-75
2021/05/17 03:13:08;;;;;;;14.73;11.73;;;10.50;99.90;;;;;;6267776;22;20223;-85
2021/05/17 03:15:35;;;;;;;14.03;11.60;;;10.50;99.90;;;;;;6268314;22;20175;-76
2021/05/17 03:18:02;;;;;;;12.53;10.23;;;10.50;99.90;;;;;;6268272;22;20180;-76
2021/05/17 03:20:29;;;;;;;11.70;10.43;;;10.50;99.90;;;;;;6267169;22;20230;-74
2021/05/17 03:22:57;;;;;;;13.47;10.73;;;10.40;99.90;;;;;;6267698;22;20200;-75
2021/05/17 03:25:25;;;;;;;13.03;10.23;;;10.40;99.90;;;;;;6268328;22;20215;-74
2021/05/17 03:27:53;;;;;;;14.70;10.87;;;10.40;99.90;;;;;;6267462;22;20431;-74
2021/05/17 03:30:20;;;;;;;13.00;11.33;;;10.40;99.90;;;;;;6266623;22;20561;-72
2021/05/17 03:32:47;;;;;;;14.13;11.20;;;10.40;99.90;;;;;;6267829;22;20168;-81
2021/05/17 03:35:14;;;;;;;17.50;11.57;;;10.40;99.90;;;;;;6268569;22;20470;-78
2021/05/17 03:37:40;;;;;;;13.70;11.60;;;10.40;99.90;;;;;;6267633;22;20632;-76
2021/05/17 03:40:09;;;;;;;16.27;11.13;;;10.40;99.90;;;;;;6265474;22;20479;-76
2021/05/17 03:42:35;;;;;;;15.90;11.43;;;10.40;99.90;;;;;;6266648;22;20299;-75
2021/05/17 03:45:03;;;;;;;20.03;12.10;;;10.40;99.90;;;;;;6266508;22;20744;-82
2021/05/17 03:47:29;;;;;;;14.67;10.93;;;10.40;99.90;;;;;;6265787;22;20675;-74
2021/05/17 03:49:55;;;;;;;16.03;11.97;;;10.40;99.90;;;;;;6265656;22;20168;-73
2021/05/17 03:52:21;;;;;;;17.57;12.80;;;10.40;99.90;;;;;;6268655;22;20169;-85
2021/05/17 03:54:48;;;;;;;15.30;11.63;;;10.40;99.90;;;;;;6266961;22;20489;-76
2021/05/17 03:57:15;;;;;;;16.30;12.27;;;10.40;99.90;;;;;;6265854;22;20183;-75
2021/05/17 03:59:44;;;;;;;17.03;13.33;;;10.40;99.90;;;;;;6265448;22;21060;-75
2021/05/17 04:02:11;;;;;;;19.17;13.77;;;10.50;99.90;;;;;;6265293;22;20741;-76
2021/05/17 04:04:40;;;;;;;14.50;12.10;;;10.40;99.90;;;;;;6266588;22;20180;-81
2021/05/17 04:07:18;;;;;;;21.97;14.10;;;10.50;99.90;;;;;;6265728;22;20173;-76
2021/05/17 04:15:14;;;;;;;15.00;13.33;;;10.50;99.90;;;;;;6233801;22;20414;-74
2021/05/17 04:17:40;;;;;;;16.23;12.30;;;10.50;99.90;;;;;;6265420;22;20208;-76
2021/05/17 04:20:07;;;;;;;17.70;13.13;;;10.50;99.90;;;;;;6265468;22;20184;-77
2021/05/17 04:22:34;;;;;;;15.63;13.07;;;10.50;99.90;;;;;;6265788;22;20189;-76
2021/05/17 04:25:00;;;;;;;18.60;13.67;;;10.50;99.90;;;;;;6265339;22;20177;-75
2021/05/17 04:27:26;;;;;;;20.23;14.53;;;10.50;99.90;;;;;;6265453;22;20173;-76
2021/05/17 04:29:53;;;;;;;19.63;13.47;;;10.60;99.90;;;;;;6265585;22;20227;-79
2021/05/17 04:32:19;;;;;;;19.50;14.37;;;10.60;99.90;;;;;;6266338;22;20899;-75
2021/05/17 04:34:46;;;;;;;17.83;14.27;;;10.60;99.90;;;;;;6264325;22;20172;-75
2021/05/17 04:37:12;;;;;;;19.27;14.63;;;10.60;99.90;;;;;;6264504;22;20400;-73
2021/05/17 04:39:38;;;;;;;18.70;14.80;;;10.60;99.90;;;;;;6265136;22;20886;-78
2021/05/17 04:42:05;;;;;;;19.23;14.33;;;10.60;99.90;;;;;;6264417;22;20195;-83
2021/05/17 04:44:32;;;;;;;18.83;15.27;;;10.70;99.90;;;;;;6264596;22;20183;-73
2021/05/17 04:46:59;;;;;;;17.83;14.53;;;10.70;99.90;;;;;;6264553;22;20223;-77
2021/05/17 04:49:25;;;;;;;20.93;15.97;;;10.70;99.90;;;;;;6263988;22;20175;-77
2021/05/17 04:51:51;;;;;;;19.40;15.97;;;10.80;99.90;;;;;;6264775;22;20180;-77
2021/05/17 04:54:17;;;;;;;21.77;17.17;;;10.80;99.90;;;;;;6264569;22;20168;-82
2021/05/17 04:56:44;;;;;;;22.10;16.73;;;10.80;99.90;;;;;;6264132;22;20180;-81
2021/05/17 04:59:10;;;;;;;19.37;15.87;;;10.90;99.90;;;;;;6264547;22;20165;-78
2021/05/17 05:01:36;;;;;;;24.83;17.97;;;10.90;99.90;;;;;;6263794;22;20204;-76
2021/05/17 05:04:04;;;;;;;22.13;16.87;;;10.90;99.90;;;;;;6264247;22;20177;-81
2021/05/17 05:06:30;;;;;;;18.20;13.57;;;10.90;99.90;;;;;;6265216;22;20223;-78
2021/05/17 05:08:57;;;;;;;19.70;15.77;;;11.00;99.90;;;;;;6266783;22;20177;-83
2021/05/17 05:11:23;;;;;;;22.87;17.90;;;11.00;99.90;;;;;;6264783;22;20180;-77
2021/05/17 05:13:50;;;;;;;20.87;16.80;;;11.00;99.90;;;;;;6266549;22;20200;-78
2021/05/17 05:16:16;;;;;;;18.13;15.67;;;11.00;99.90;;;;;;6265007;22;20201;-77
2021/05/17 05:18:42;;;;;;;21.83;18.50;;;11.10;99.90;;;;;;6265249;22;20644;-77
2021/05/17 05:21:09;;;;;;;18.07;15.70;;;11.10;99.90;;;;;;6265040;22;20193;-81
2021/05/17 05:23:36;;;;;;;21.00;17.20;;;11.10;99.90;;;;;;6265743;22;20177;-88
2021/05/17 05:26:31;;;;;;;21.47;16.63;;;11.10;99.90;;;;;;6270703;22;20181;-87
2021/05/17 05:29:06;;;;;;;20.70;16.40;;;11.20;99.90;;;;;;6271372;22;20187;-77
2021/05/17 05:31:37;;;;;;;22.03;17.20;;;11.20;99.90;;;;;;6269943;22;20188;-83
2021/05/17 05:34:03;;;;;;;19.83;16.23;;;11.20;99.90;;;;;;6272093;22;20165;-83
2021/05/17 05:36:30;;;;;;;19.90;16.07;;;11.30;99.90;;;;;;6269631;22;20173;-90
2021/05/17 05:38:58;;;;;;;21.63;17.50;;;11.30;99.90;;;;;;6269666;22;20264;-89
2021/05/17 05:41:24;;;;;;;21.33;18.13;;;11.40;99.90;;;;;;6271540;22;20200;-89
2021/05/17 05:43:50;;;;;;;19.80;16.27;;;11.40;99.90;;;;;;6270197;22;20176;-86
2021/05/17 05:46:16;;;;;;;19.93;17.20;;;11.40;99.90;;;;;;6268605;22;20180;-90
2021/05/17 05:48:48;;;;;;;19.57;17.50;;;11.50;99.90;;;;;;6269292;22;20176;-78
2021/05/17 05:51:17;;;;;;;19.57;16.47;;;11.50;99.90;;;;;;6268912;22;20168;-85
2021/05/17 05:53:44;;;;;;;19.00;16.97;;;11.50;99.90;;;;;;6266592;22;20621;-77
2021/05/17 05:56:11;;;;;;;21.07;17.03;;;11.60;99.90;;;;;;6268119;22;20184;-87
2021/05/17 05:58:38;;;;;;;18.90;16.27;;;11.70;99.90;;;;;;6269415;22;20172;-91
2021/05/17 06:01:05;;;;;;;18.50;14.90;;;11.70;99.90;;;;;;6268495;22;20177;-77
2021/05/17 06:03:31;;;;;;;17.93;15.10;;;11.70;99.90;;;;;;6271433;22;20176;-89
2021/05/17 06:05:57;;;;;;;18.80;16.60;;;11.80;99.90;;;;;;6271339;22;20177;-74
2021/05/17 06:08:24;;;;;;;17.70;15.80;;;11.80;99.90;;;;;;6267084;22;20230;-76
2021/05/17 06:10:52;;;;;;;17.83;14.67;;;11.80;99.90;;;;;;6268045;22;20621;-82
2021/05/17 06:13:18;;;;;;;17.53;15.40;;;11.80;99.90;;;;;;6269267;22;20192;-85
2021/05/17 06:15:45;;;;;;;23.67;16.00;;;11.90;99.90;;;;;;6266640;22;20930;-86
2021/05/17 06:18:13;;;;;;;16.97;14.77;;;11.90;99.90;;;;;;6267801;22;20200;-83
2021/05/17 06:20:40;;;;;;;18.37;15.63;;;11.90;99.90;;;;;;6266122;22;20177;-83
2021/05/17 06:23:08;;;;;;;18.03;15.37;;;12.00;99.90;;;;;;6267894;22;20188;-82
2021/05/17 06:25:35;;;;;;;17.00;15.23;;;12.10;99.90;;;;;;6265340;22;20480;-76
2021/05/17 06:28:03;;;;;;;18.07;16.13;;;12.10;99.90;;;;;;6264968;22;20204;-82
2021/05/17 06:30:31;;;;;;;17.60;15.80;;;12.20;99.90;;;;;;6266996;22;20173;-79
2021/05/17 06:32:58;;;;;;;18.73;15.87;;;12.30;99.90;;;;;;6266202;22;20227;-83
2021/05/17 06:35:28;;;;;;;19.97;16.07;;;12.30;99.90;;;;;;6266737;22;20204;-77
2021/05/17 06:37:54;;;;;;;18.00;16.10;;;12.30;99.90;;;;;;6271022;22;20180;-77
2021/05/17 06:40:21;;;;;;;18.40;16.37;;;12.30;99.90;;;;;;6265135;22;20169;-81
2021/05/17 06:42:48;;;;;;;16.93;15.13;;;12.40;99.90;;;;;;6263251;22;20192;-75
2021/05/17 06:45:16;;;;;;;16.50;14.80;;;12.30;99.90;;;;;;6266345;22;20226;-77
2021/05/17 06:47:44;;;;;;;19.30;14.93;;;12.30;99.90;;;;;;6264710;22;20557;-80
2021/05/17 06:50:11;;;;;;;15.77;14.27;;;12.30;99.90;;;;;;6264461;22;20184;-77
2021/05/17 06:52:39;;;;;;;15.43;13.93;;;12.30;99.90;;;;;;6264563;22;20169;-81
2021/05/17 06:55:14;;;;;;;15.17;13.67;;;12.30;99.90;;;;;;6264829;22;20176;-81
2021/05/17 06:58:51;;;;;;;15.63;14.03;;;12.30;99.90;;;;;;6209702;22;20164;-76
2021/05/17 07:01:19;;;;;;;16.13;13.40;;;12.30;99.90;;;;;;6266165;22;20196;-79
2021/05/17 07:03:46;;;;;;;15.67;14.17;;;12.30;99.90;;;;;;6266403;22;20176;-85
2021/05/17 07:06:17;;;;;;;14.27;12.80;;;12.30;99.90;;;;;;6267778;22;20712;-76
2021/05/17 07:14:15;;;;;;;16.70;13.90;;;12.30;99.90;;;;;;6257010;22;20199;-83
2021/05/17 07:16:43;;;;;;;14.40;12.83;;;12.40;99.90;;;;;;6263582;22;20337;-77
2021/05/17 07:19:09;;;;;;;12.87;11.50;;;12.30;99.90;;;;;;6266273;22;20171;-79
2021/05/17 07:24:22;;;;;;;14.50;13.07;;;12.50;99.90;;;;;;6265870;22;20163;-80
2021/05/17 07:26:49;;;;;;;14.07;11.83;;;12.60;99.90;;;;;;6264638;22;20173;-77
2021/05/17 07:29:16;;;;;;;15.10;13.60;;;12.70;99.90;;;;;;6266231;22;20173;-80
2021/05/17 07:31:44;;;;;;;15.63;14.03;;;12.70;99.90;;;;;;6263216;22;20169;-79
2021/05/17 07:34:10;;;;;;;15.50;13.80;;;12.80;99.90;;;;;;6265673;22;20177;-76
2021/05/17 07:36:36;;;;;;;13.00;11.70;;;12.80;99.90;;;;;;6266252;22;20699;-78
2021/05/17 07:39:03;;;;;;;13.63;12.33;;;12.80;99.90;;;;;;6262739;22;20173;-78
2021/05/17 07:41:30;;;;;;;14.50;13.13;;;12.80;99.90;;;;;;6263568;22;20736;-76
2021/05/17 07:43:56;;;;;;;16.50;14.77;;;12.90;99.90;;;;;;6266222;22;20264;-83
2021/05/17 07:46:22;;;;;;;14.27;12.77;;;13.00;99.90;;;;;;6265239;22;20188;-78
2021/05/17 07:49:10;;;;;;;14.60;12.97;;;13.10;99.90;;;;;;6266473;22;20180;-78
2021/05/17 07:51:37;;;;;;;15.23;13.60;;;13.10;99.90;;;;;;6266712;22;20172;-78
2021/05/17 07:54:04;;;;;;;13.23;11.93;;;13.10;99.90;;;;;;6268897;22;20179;-81
2021/05/17 07:56:31;;;;;;;12.67;11.47;;;13.20;99.90;;;;;;6268927;22;20871;-81
2021/05/17 07:58:57;;;;;;;14.67;13.23;;;13.30;99.90;;;;;;6266364;22;20173;-83
2021/05/17 08:01:24;;;;;;;14.37;12.73;;;13.30;99.90;;;;;;6268546;22;20569;-76
2021/05/17 08:03:51;;;;;;;13.30;12.10;;;13.40;99.90;;;;;;6267087;22;20217;-75
2021/05/17 08:06:17;;;;;;;11.63;10.47;;;13.50;99.90;;;;;;6265623;22;20717;-82
2021/05/17 08:08:43;;;;;;;11.37;10.23;;;13.50;99.90;;;;;;6264602;22;20596;-77
2021/05/17 08:11:10;;;;;;;12.00;10.80;;;13.60;99.90;;;;;;6268359;22;20222;-77
2021/05/17 08:13:38;;;;;;;10.70;9.70;;;13.70;99.90;;;;;;6266345;22;20751;-76
2021/05/17 08:16:05;;;;;;;10.07;8.90;;;13.60;99.90;;;;;;6266049;22;20172;-86
2021/05/17 08:18:32;;;;;;;7.23;6.53;;;13.60;99.90;;;;;;6267399;22;20486;-81
2021/05/17 08:20:59;;;;;;;5.90;5.40;;;13.60;99.90;;;;;;6267233;22;20172;-77
2021/05/17 08:23:25;;;;;;;6.10;5.50;;;13.50;99.90;;;;;;6266256;22;20203;-75
2021/05/17 08:25:52;;;;;;;5.87;5.13;;;13.60;99.90;;;;;;6268280;22;20177;-81
2021/05/17 08:28:18;;;;;;;6.70;6.03;;;13.60;99.90;;;;;;6266650;22;20177;-78
2021/05/17 08:30:46;;;;;;;7.17;6.50;;;13.60;99.90;;;;;;6266255;22;20188;-76
2021/05/17 08:33:14;;;;;;;7.13;6.43;;;13.40;99.90;;;;;;6266549;22;20172;-77
2021/05/17 08:35:41;;;;;;;8.40;6.73;;;13.40;99.90;;;;;;6266402;22;20596;-82
2021/05/17 08:38:08;;;;;;;8.03;7.40;;;13.40;99.90;;;;;;6266846;22;20172;-78
2021/05/17 08:40:36;;;;;;;8.60;7.73;;;13.40;99.90;;;;;;6265899;22;20173;-76
2021/05/17 08:43:03;;;;;;;7.37;6.20;;;13.40;99.90;;;;;;6264898;22;20188;-77
2021/05/17 08:45:31;;;;;;;6.67;6.07;;;13.30;99.90;;;;;;6265518;22;20549;-78
2021/05/17 08:47:57;;;;;;;6.50;5.90;;;13.30;99.90;;;;;;6265147;22;20427;-75
2021/05/17 08:50:24;;;;;;;6.83;6.23;;;13.30;99.90;;;;;;6265132;22;20177;-78
2021/05/17 08:52:51;;;;;;;6.07;5.47;;;13.20;99.90;;;;;;6265001;22;20173;-78
2021/05/17 08:55:19;;;;;;;8.17;7.40;;;13.40;99.90;;;;;;6264845;22;20184;-79
2021/05/17 08:57:47;;;;;;;9.90;7.10;;;13.40;99.90;;;;;;6264804;22;20203;-77
2021/05/17 09:00:17;;;;;;;6.63;6.03;;;13.50;99.90;;;;;;6266530;22;20177;-75
2021/05/17 09:02:43;;;;;;;6.33;5.73;;;13.60;99.90;;;;;;6263718;22;20466;-75
2021/05/17 09:05:15;;;;;;;6.77;6.00;;;13.80;99.90;;;;;;6264727;22;20190;-77
2021/05/17 09:07:43;;;;;;;6.23;5.70;;;14.00;99.90;;;;;;6265496;22;20423;-80
2021/05/17 09:10:15;;;;;;;7.20;6.50;;;14.10;99.90;;;;;;6264210;22;20176;-78
2021/05/17 09:12:59;;;;;;;4.83;4.33;;;14.20;99.90;;;;;;6264162;22;20168;-75
2021/05/17 09:15:30;;;;;;;4.70;4.30;;;14.30;99.90;;;;;;6264270;22;20622;-76
2021/05/17 09:17:57;;;;;;;5.90;5.30;;;14.30;99.90;;;;;;6263884;22;20204;-76
2021/05/17 09:20:25;;;;;;;4.90;4.50;;;14.30;99.90;;;;;;6263874;22;20184;-75
2021/05/17 09:23:15;;;;;;;5.23;3.70;;;14.30;99.90;;;;;;6264309;22;20473;-77
2021/05/17 09:25:56;;;;;;;4.00;3.70;;;14.30;99.90;;;;;;6264837;22;20176;-75
2021/05/17 09:28:29;;;;;;;3.90;3.60;;;14.20;99.90;;;;;;6263736;22;20169;-76
2021/05/17 09:31:03;;;;;;;5.53;4.50;;;14.20;99.90;;;;;;6263526;22;20169;-81
2021/05/17 09:33:37;;;;;;;4.80;4.30;;;14.20;99.90;;;;;;6264609;22;20172;-77
2021/05/17 09:36:06;;;;;;;4.90;4.47;;;14.10;99.90;;;;;;6264444;22;20219;-76
2021/05/17 09:38:33;;;;;;;4.53;4.13;;;14.10;99.90;;;;;;6263388;22;20173;-75
2021/05/17 09:41:01;;;;;;;4.50;3.87;;;14.10;99.90;;;;;;6264450;22;20169;-77
2021/05/17 09:43:29;;;;;;;3.97;3.57;;;14.00;99.90;;;;;;6264161;22;20222;-77
2021/05/17 09:45:56;;;;;;;4.17;3.77;;;13.90;99.90;;;;;;6263153;22;20164;-80
2021/05/17 09:48:24;;;;;;;4.20;3.80;;;13.90;99.90;;;;;;6264849;22;20180;-76
2021/05/17 09:50:59;;;;;;;5.83;5.33;;;13.90;99.90;;;;;;6264882;22;20169;-80
2021/05/17 09:53:27;;;;;;;7.10;6.40;;;14.00;99.90;;;;;;6263321;22;20173;-76
2021/05/17 09:55:53;;;;;;;8.50;6.73;;;13.90;99.90;;;;;;6263919;22;20165;-76
2021/05/17 09:58:33;;;;;;;7.50;6.83;;;14.10;99.90;;;;;;6262880;22;20165;-81
2021/05/17 10:01:11;;;;;;;9.50;8.50;;;14.20;99.90;;;;;;6261359;22;20173;-77
2021/05/17 10:03:39;;;;;;;8.03;7.33;;;14.30;99.90;;;;;;6263400;22;20251;-77
2021/05/17 10:06:10;;;;;;;10.13;8.03;;;14.30;99.90;;;;;;6261580;22;20176;-81
2021/05/17 10:08:37;;;;;;;9.47;8.40;;;14.40;99.90;;;;;;6265246;22;20199;-82
2021/05/17 10:11:04;;;;;;;9.20;8.30;;;14.40;99.90;;;;;;6261867;22;20173;-81
2021/05/17 10:13:34;;;;;;;10.73;9.60;;;14.40;99.90;;;;;;6262895;22;20199;-81
2021/05/17 10:16:06;;;;;;;10.20;8.93;;;14.40;99.90;;;;;;6263918;22;20219;-80
2021/05/17 10:18:33;;;;;;;12.50;11.20;;;14.40;99.90;;;;;;6264907;22;20728;-80
2021/05/17 10:21:00;;;;;;;13.13;11.70;;;14.40;99.90;;;;;;6264589;22;20183;-80
2021/05/17 10:23:27;;;;;;;13.77;12.07;;;14.40;99.90;;;;;;6264709;22;20192;-81
2021/05/17 10:26:04;;;;;;;15.20;13.70;;;14.30;99.90;;;;;;6265059;22;20169;-81
2021/05/17 10:28:32;;;;;;;15.77;13.60;;;14.30;99.90;;;;;;6265796;22;20168;-79
2021/05/17 10:31:07;;;;;;;17.53;14.10;;;14.20;99.90;;;;;;6264190;22;20176;-76
2021/05/17 10:33:34;;;;;;;17.63;15.23;;;14.20;99.90;;;;;;6264996;22;20165;-79
2021/05/17 10:36:00;;;;;;;17.37;14.83;;;14.30;99.90;;;;;;6264685;22;20180;-79
2021/05/17 10:38:34;;;;;;;20.23;15.77;;;14.40;99.90;;;;;;6264414;22;20176;-82
2021/05/17 10:41:32;;;;;;;15.53;13.90;;;14.40;99.90;;;;;;6264468;22;20488;-81
2021/05/17 10:44:07;;;;;;;14.10;12.27;;;14.60;99.90;;;;;;6265300;22;20263;-76
2021/05/17 10:46:39;;;;;;;12.60;11.30;;;14.70;99.90;;;;;;6263796;22;20175;-77
2021/05/17 10:49:29;;;;;;;15.70;12.23;;;14.90;99.90;;;;;;6263732;22;20180;-79
2021/05/17 10:52:17;;;;;;;13.77;12.17;;;15.10;99.90;;;;;;6264533;22;20169;-76
2021/05/17 10:54:45;;;;;;;15.50;13.33;;;15.10;99.90;;;;;;6263719;22;20172;-77
2021/05/17 10:57:19;;;;;;;16.37;12.60;;;15.30;99.90;;;;;;6264732;22;20184;-80
2021/05/17 11:02:35;;;;;;;11.73;9.90;;;15.30;99.90;;;;;;6263574;22;20209;-80
2021/05/17 11:05:03;;;;;;;8.33;7.07;;;15.50;99.90;;;;;;6264798;22;20173;-81
2021/05/17 11:07:31;;;;;;;5.87;5.07;;;15.50;99.90;;;;;;6263747;22;20176;-77
2021/05/17 11:10:08;;;;;;;7.22;6.15;;;15.60;99.90;;;;;;6262539;22;20176;-76
2021/05/17 11:12:55;;;;;;;5.47;4.43;;;15.70;99.90;;;;;;6262615;22;20165;-75
2021/05/17 11:15:23;;;;;;;3.93;3.23;;;15.60;99.90;;;;;;6263118;22;20165;-76
2021/05/17 11:18:18;;;;;;;6.10;4.40;;;15.50;99.90;;;;;;6264449;22;20285;-78
2021/05/17 11:20:51;;;;;;;2.37;2.00;;;15.60;99.90;;;;;;6266954;22;20165;-79
2021/05/17 11:23:20;;;;;;;2.20;2.00;;;15.80;99.90;;;;;;6264198;22;20200;-80
2021/05/17 11:25:52;;;;;;;2.97;1.90;;;16.00;99.90;;;;;;6266961;22;20233;-77
2021/05/17 11:28:57;;;;;;;2.50;2.30;;;16.10;99.90;;;;;;6267185;22;20176;-77
2021/05/17 11:31:37;;;;;;;2.77;2.57;;;16.20;99.90;;;;;;6266764;22;20171;-79
2021/05/17 11:34:10;;;;;;;5.37;3.50;;;16.30;99.90;;;;;;6265898;22;20222;-82
2021/05/17 11:36:38;;;;;;;4.10;3.17;;;16.60;99.90;;;;;;6266540;22;20169;-81
2021/05/17 11:39:13;;;;;;;6.68;3.58;;;16.50;99.90;;;;;;6266773;22;20646;-79
2021/05/17 11:41:41;;;;;;;5.72;3.75;;;16.50;99.90;;;;;;6265530;22;20584;-81
2021/05/17 11:44:09;;;;;;;5.10;4.30;;;16.70;99.90;;;;;;6265891;22;20231;-81
2021/05/17 11:46:39;;;;;;;4.18;3.70;;;16.70;99.90;;;;;;6266599;22;20180;-79
2021/05/17 11:49:06;;;;;;;4.72;4.10;;;16.80;99.90;;;;;;6265900;22;20180;-80
2021/05/17 11:51:33;;;;;;;5.32;4.43;;;16.70;99.90;;;;;;6264615;22;20172;-77
2021/05/17 11:53:59;;;;;;;7.00;5.35;;;16.60;99.90;;;;;;6265774;22;20263;-78
2021/05/17 11:56:34;;;;;;;5.45;4.88;;;16.60;99.90;;;;;;6266033;22;20177;-78
2021/05/17 11:59:19;;;;;;;6.28;5.35;;;16.80;99.90;;;;;;6264841;22;20172;-79
2021/05/17 12:01:48;;;;;;;7.03;6.20;;;17.10;99.90;;;;;;6265280;22;20172;-80
2021/05/17 12:04:19;;;;;;;8.88;5.68;;;17.10;99.90;;;;;;6267041;22;20176;-77
2021/05/17 12:06:48;;;;;;;7.88;5.80;;;17.40;99.90;;;;;;6266010;22;20179;-84
2021/05/17 12:09:27;;;;;;;4.32;3.85;;;17.50;99.90;;;;;;6267609;22;20168;-81
2021/05/17 12:11:53;;;;;;;6.45;4.85;;;17.40;99.90;;;;;;6267299;22;20172;-86
2021/05/17 12:14:19;;;;;;;5.30;4.40;;;17.10;99.90;;;;;;6267634;22;20196;-82
2021/05/17 12:17:06;;;;;;;7.65;3.78;;;17.10;99.90;;;;;;6266903;22;20200;-81
2021/05/17 12:19:33;;;;;;;5.60;3.08;;;17.10;99.90;;;;;;6267073;22;20164;-84
2021/05/17 12:22:02;;;;;;;2.85;1.80;;;17.30;99.90;;;;;;6267091;22;20231;-83
2021/05/17 12:24:30;;;;;;;3.60;2.10;;;17.10;99.90;;;;;;6266308;22;20642;-84
2021/05/17 12:26:59;;;;;;;4.03;1.75;;;17.20;99.90;;;;;;6266749;22;20784;-80
2021/05/17 12:29:27;;;;;;;5.90;1.88;;;17.20;99.90;;;;;;6268403;22;20181;-79
2021/05/17 12:32:08;;;;;;;2.75;1.40;;;17.40;99.90;;;;;;6267456;22;20230;-80
2021/05/17 12:34:34;;;;;;;3.67;1.40;;;17.50;99.90;;;;;;6267218;22;20788;-81
2021/05/17 12:37:01;;;;;;;3.70;1.60;;;17.60;99.90;;;;;;6267031;22;20484;-79
2021/05/17 12:39:27;;;;;;;3.53;1.33;;;17.60;99.90;;;;;;6268163;22;20173;-79
2021/05/17 12:41:53;;;;;;;5.65;1.60;;;17.40;99.90;;;;;;6267189;22;20210;-80
2021/05/17 12:44:29;;;;;;;4.25;1.05;;;17.30;99.90;;;;;;6267161;22;20176;-81
2021/05/17 12:47:08;;;;;;;3.40;1.17;;;17.20;99.90;;;;;;6268243;22;20226;-79
2021/05/17 12:49:51;;;;;;;4.25;1.10;;;17.10;99.90;;;;;;6265951;22;20169;-78
2021/05/17 12:52:25;;;;;;;1.35;1.02;;;17.00;99.90;;;;;;6266277;22;20859;-83
2021/05/17 12:55:09;;;;;;;3.03;1.13;;;17.20;99.90;;;;;;6268614;22;20181;-79
2021/05/17 12:57:43;;;;;;;2.60;1.30;;;17.40;99.90;;;;;;6266095;22;20984;-78
2021/05/17 13:00:11;;;;;;;3.30;1.33;;;17.60;99.90;;;;;;6267742;22;20476;-79
2021/05/17 13:02:38;;;;;;;6.80;1.85;;;17.50;99.90;;;;;;6265053;22;20200;-81